sensor_id;sensor_type;location;lat;lon;timestamp;temperature;humidity
43665;DHT22;29263;48.172;11.484;2024-02-26T00:00:33;2.30;99.90
43665;DHT22;29263;48.172;11.484;2024-02-26T00:03:00;2.30;99.90
43665;DHT22;29263;48.172;11.484;2024-02-26T00:05:26;2.30;99.90
43665;DHT22;29263;48.172;11.484;2024-02-26T00:07:51;2.30;99.90
43665;DHT22;29263;48.172;11.484;2024-02-26T00:10:17;2.30;99.90
43665;DHT22;29263;48.172;11.484;2024-02-26T00:12:43;2.30;99.90
43665;DHT22;29263;48.172;11.484;2024-02-26T00:15:09;2.20;99.90
43665;DHT22;29263;48.172;11.484;2024-02-26T00:17:35;2.20;99.90
43665;DHT22;29263;48.172;11.484;2024-02-26T00:20:02;2.20;99.90
43665;DHT22;29263;48.172;11.484;2024-02-26T00:22:30;2.10;99.90
43665;DHT22;29263;48.172;11.484;2024-02-26T00:24:56;2.10;99.90
43665;DHT22;29263;48.172;11.484;2024-02-26T00:27:21;2.10;99.90
43665;DHT22;29263;48.172;11.484;2024-02-26T00:29:47;2.10;99.90
43665;DHT22;29263;48.172;11.484;2024-02-26T00:32:12;2.10;99.90
43665;DHT22;29263;48.172;11.484;2024-02-26T00:34:38;2.00;99.90
43665;DHT22;29263;48.172;11.484;2024-02-26T00:37:04;2.00;99.90
43665;DHT22;29263;48.172;11.484;2024-02-26T00:39:29;2.00;99.90
43665;DHT22;29263;48.172;11.484;2024-02-26T00:41:55;1.90;99.90
43665;DHT22;29263;48.172;11.484;2024-02-26T00:44:21;1.90;99.90
43665;DHT22;29263;48.172;11.484;2024-02-26T00:46:46;1.90;99.90
43665;DHT22;29263;48.172;11.484;2024-02-26T00:49:12;1.90;99.90
43665;DHT22;29263;48.172;11.484;2024-02-26T00:51:37;1.90;99.90
43665;DHT22;29263;48.172;11.484;2024-02-26T00:54:03;1.80;99.90
43665;DHT22;29263;48.172;11.484;2024-02-26T00:56:29;1.80;99.90
43665;DHT22;29263;48.172;11.484;2024-02-26T00:58:54;1.70;99.90
43665;DHT22;29263;48.172;11.484;2024-02-26T01:01:20;1.70;99.90
43665;DHT22;29263;48.172;11.484;2024-02-26T01:03:45;1.60;99.90
43665;DHT22;29263;48.172;11.484;2024-02-26T01:06:11;1.60;99.90
43665;DHT22;29263;48.172;11.484;2024-02-26T01:08:37;1.60;99.90
43665;DHT22;29263;48.172;11.484;2024-02-26T01:11:03;1.60;99.90
43665;DHT22;29263;48.172;11.484;2024-02-26T01:13:28;1.60;99.90
43665;DHT22;29263;48.172;11.484;2024-02-26T01:15:54;1.50;99.90
43665;DHT22;29263;48.172;11.484;2024-02-26T01:18:20;1.50;99.90
43665;DHT22;29263;48.172;11.484;2024-02-26T01:20:46;1.50;99.90
43665;DHT22;29263;48.172;11.484;2024-02-26T01:23:12;1.50;99.90
43665;DHT22;29263;48.172;11.484;2024-02-26T01:25:38;1.50;99.90
43665;DHT22;29263;48.172;11.484;2024-02-26T01:28:05;1.40;99.90
43665;DHT22;29263;48.172;11.484;2024-02-26T01:30:31;1.40;99.90
43665;DHT22;29263;48.172;11.484;2024-02-26T01:32:57;1.40;99.90
43665;DHT22;29263;48.172;11.484;2024-02-26T01:35:22;1.40;99.90
43665;DHT22;29263;48.172;11.484;2024-02-26T01:37:48;1.30;99.90
43665;DHT22;29263;48.172;11.484;2024-02-26T01:40:14;1.30;99.90
43665;DHT22;29263;48.172;11.484;2024-02-26T01:42:45;1.30;99.90
43665;DHT22;29263;48.172;11.484;2024-02-26T01:45:15;1.30;99.90
43665;DHT22;29263;48.172;11.484;2024-02-26T01:47:46;1.30;99.90
43665;DHT22;29263;48.172;11.484;2024-02-26T01:50:12;1.20;99.90
43665;DHT22;29263;48.172;11.484;2024-02-26T01:52:38;1.30;99.90
43665;DHT22;29263;48.172;11.484;2024-02-26T01:55:03;1.20;99.90
43665;DHT22;29263;48.172;11.484;2024-02-26T01:57:29;1.20;99.90
43665;DHT22;29263;48.172;11.484;2024-02-26T01:59:55;1.20;99.90
43665;DHT22;29263;48.172;11.484;2024-02-26T02:02:21;1.20;99.90
43665;DHT22;29263;48.172;11.484;2024-02-26T02:04:47;1.20;99.90
43665;DHT22;29263;48.172;11.484;2024-02-26T02:07:12;1.20;99.90
43665;DHT22;29263;48.172;11.484;2024-02-26T02:09:38;1.10;99.90
43665;DHT22;29263;48.172;11.484;2024-02-26T02:12:04;1.10;99.90
43665;DHT22;29263;48.172;11.484;2024-02-26T02:14:31;1.10;99.90
43665;DHT22;29263;48.172;11.484;2024-02-26T02:16:57;1.10;99.90
43665;DHT22;29263;48.172;11.484;2024-02-26T02:19:22;1.10;99.90
43665;DHT22;29263;48.172;11.484;2024-02-26T02:21:48;1.10;99.90
43665;DHT22;29263;48.172;11.484;2024-02-26T02:24:13;1.10;99.90
43665;DHT22;29263;48.172;11.484;2024-02-26T02:26:39;1.10;99.90
43665;DHT22;29263;48.172;11.484;2024-02-26T02:29:06;1.10;99.90
43665;DHT22;29263;48.172;11.484;2024-02-26T02:31:32;1.10;99.90
43665;DHT22;29263;48.172;11.484;2024-02-26T02:33:58;1.10;99.90
43665;DHT22;29263;48.172;11.484;2024-02-26T02:36:24;1.20;99.90
43665;DHT22;29263;48.172;11.484;2024-02-26T02:38:50;1.20;99.90
43665;DHT22;29263;48.172;11.484;2024-02-26T02:41:16;1.20;99.90
43665;DHT22;29263;48.172;11.484;2024-02-26T02:43:41;1.20;99.90
43665;DHT22;29263;48.172;11.484;2024-02-26T02:46:07;1.20;99.90
43665;DHT22;29263;48.172;11.484;2024-02-26T02:48:33;1.20;99.90
43665;DHT22;29263;48.172;11.484;2024-02-26T02:50:58;1.10;99.90
43665;DHT22;29263;48.172;11.484;2024-02-26T02:53:24;1.10;99.90
43665;DHT22;29263;48.172;11.484;2024-02-26T02:55:49;1.10;99.90
43665;DHT22;29263;48.172;11.484;2024-02-26T02:58:15;1.10;99.90
43665;DHT22;29263;48.172;11.484;2024-02-26T03:00:41;1.10;99.90
43665;DHT22;29263;48.172;11.484;2024-02-26T03:03:06;1.10;99.90
43665;DHT22;29263;48.172;11.484;2024-02-26T03:05:32;1.10;99.90
43665;DHT22;29263;48.172;11.484;2024-02-26T03:07:57;1.10;99.90
43665;DHT22;29263;48.172;11.484;2024-02-26T03:10:23;1.10;99.90
43665;DHT22;29263;48.172;11.484;2024-02-26T03:12:49;1.10;99.90
43665;DHT22;29263;48.172;11.484;2024-02-26T03:15:15;1.10;99.90
43665;DHT22;29263;48.172;11.484;2024-02-26T03:17:41;1.10;99.90
43665;DHT22;29263;48.172;11.484;2024-02-26T03:20:07;1.00;99.90
43665;DHT22;29263;48.172;11.484;2024-02-26T03:22:34;1.00;99.90
43665;DHT22;29263;48.172;11.484;2024-02-26T03:24:59;1.00;99.90
43665;DHT22;29263;48.172;11.484;2024-02-26T03:27:25;1.10;99.90
43665;DHT22;29263;48.172;11.484;2024-02-26T03:29:51;1.10;99.90
43665;DHT22;29263;48.172;11.484;2024-02-26T03:32:18;1.10;99.90
43665;DHT22;29263;48.172;11.484;2024-02-26T03:34:43;1.10;99.90
43665;DHT22;29263;48.172;11.484;2024-02-26T03:37:09;1.10;99.90
43665;DHT22;29263;48.172;11.484;2024-02-26T03:39:36;1.20;99.90
43665;DHT22;29263;48.172;11.484;2024-02-26T03:42:02;1.20;99.90
43665;DHT22;29263;48.172;11.484;2024-02-26T03:44:28;1.20;99.90
43665;DHT22;29263;48.172;11.484;2024-02-26T03:46:53;1.20;99.90
43665;DHT22;29263;48.172;11.484;2024-02-26T03:49:19;1.20;99.90
43665;DHT22;29263;48.172;11.484;2024-02-26T03:51:44;1.30;99.90
43665;DHT22;29263;48.172;11.484;2024-02-26T03:54:10;1.30;99.90
43665;DHT22;29263;48.172;11.484;2024-02-26T03:56:36;1.30;99.90
43665;DHT22;29263;48.172;11.484;2024-02-26T03:59:01;1.30;99.90
43665;DHT22;29263;48.172;11.484;2024-02-26T04:01:28;1.30;99.90
43665;DHT22;29263;48.172;11.484;2024-02-26T04:03:54;1.30;99.90
43665;DHT22;29263;48.172;11.484;2024-02-26T04:06:19;1.30;99.90
43665;DHT22;29263;48.172;11.484;2024-02-26T04:08:46;1.30;99.90
43665;DHT22;29263;48.172;11.484;2024-02-26T04:11:12;1.40;99.90
43665;DHT22;29263;48.172;11.484;2024-02-26T04:13:38;1.30;99.90
43665;DHT22;29263;48.172;11.484;2024-02-26T04:16:05;1.30;99.90
43665;DHT22;29263;48.172;11.484;2024-02-26T04:18:31;1.30;99.90
43665;DHT22;29263;48.172;11.484;2024-02-26T04:20:57;1.30;99.90
43665;DHT22;29263;48.172;11.484;2024-02-26T04:23:23;1.30;99.90
43665;DHT22;29263;48.172;11.484;2024-02-26T04:25:49;1.30;99.90
43665;DHT22;29263;48.172;11.484;2024-02-26T04:28:15;1.30;99.90
43665;DHT22;29263;48.172;11.484;2024-02-26T04:30:41;1.30;99.90
43665;DHT22;29263;48.172;11.484;2024-02-26T04:33:06;1.30;99.90
43665;DHT22;29263;48.172;11.484;2024-02-26T04:35:32;1.30;99.90
43665;DHT22;29263;48.172;11.484;2024-02-26T04:37:58;1.30;99.90
43665;DHT22;29263;48.172;11.484;2024-02-26T04:40:23;1.20;99.90
43665;DHT22;29263;48.172;11.484;2024-02-26T04:42:49;1.20;99.90
43665;DHT22;29263;48.172;11.484;2024-02-26T04:45:15;1.20;99.90
43665;DHT22;29263;48.172;11.484;2024-02-26T04:47:41;1.20;99.90
43665;DHT22;29263;48.172;11.484;2024-02-26T04:50:06;1.10;99.90
43665;DHT22;29263;48.172;11.484;2024-02-26T04:52:32;1.10;99.90
43665;DHT22;29263;48.172;11.484;2024-02-26T04:54:58;1.10;99.90
43665;DHT22;29263;48.172;11.484;2024-02-26T04:57:25;1.00;99.90
43665;DHT22;29263;48.172;11.484;2024-02-26T04:59:51;1.00;99.90
43665;DHT22;29263;48.172;11.484;2024-02-26T05:02:17;1.00;99.90
43665;DHT22;29263;48.172;11.484;2024-02-26T05:04:43;1.00;99.90
43665;DHT22;29263;48.172;11.484;2024-02-26T05:07:09;1.00;99.90
43665;DHT22;29263;48.172;11.484;2024-02-26T05:09:35;1.00;99.90
43665;DHT22;29263;48.172;11.484;2024-02-26T05:12:00;1.00;99.90
43665;DHT22;29263;48.172;11.484;2024-02-26T05:14:27;1.00;99.90
43665;DHT22;29263;48.172;11.484;2024-02-26T05:16:52;1.00;99.90
43665;DHT22;29263;48.172;11.484;2024-02-26T05:19:18;1.00;99.90
43665;DHT22;29263;48.172;11.484;2024-02-26T05:21:43;1.00;99.90
43665;DHT22;29263;48.172;11.484;2024-02-26T05:24:09;1.00;99.90
43665;DHT22;29263;48.172;11.484;2024-02-26T05:26:35;1.00;99.90
43665;DHT22;29263;48.172;11.484;2024-02-26T05:29:01;1.00;99.90
43665;DHT22;29263;48.172;11.484;2024-02-26T05:31:27;1.00;99.90
43665;DHT22;29263;48.172;11.484;2024-02-26T05:33:54;1.00;99.90
43665;DHT22;29263;48.172;11.484;2024-02-26T05:36:23;1.00;99.90
43665;DHT22;29263;48.172;11.484;2024-02-26T05:38:49;1.00;99.90
43665;DHT22;29263;48.172;11.484;2024-02-26T05:41:17;1.00;99.90
43665;DHT22;29263;48.172;11.484;2024-02-26T05:43:51;1.00;99.90
43665;DHT22;29263;48.172;11.484;2024-02-26T05:46:18;1.00;99.90
43665;DHT22;29263;48.172;11.484;2024-02-26T05:48:44;1.00;99.90
43665;DHT22;29263;48.172;11.484;2024-02-26T05:51:10;1.00;99.90
43665;DHT22;29263;48.172;11.484;2024-02-26T05:53:36;1.10;99.90
43665;DHT22;29263;48.172;11.484;2024-02-26T05:56:01;1.10;99.90
43665;DHT22;29263;48.172;11.484;2024-02-26T05:58:27;1.10;99.90
43665;DHT22;29263;48.172;11.484;2024-02-26T06:00:52;1.10;99.90
43665;DHT22;29263;48.172;11.484;2024-02-26T06:03:18;1.10;99.90
43665;DHT22;29263;48.172;11.484;2024-02-26T06:05:44;1.20;99.90
43665;DHT22;29263;48.172;11.484;2024-02-26T06:08:09;1.20;99.90
43665;DHT22;29263;48.172;11.484;2024-02-26T06:10:35;1.30;99.90
43665;DHT22;29263;48.172;11.484;2024-02-26T06:13:00;1.30;99.90
43665;DHT22;29263;48.172;11.484;2024-02-26T06:15:26;1.30;99.90
43665;DHT22;29263;48.172;11.484;2024-02-26T06:17:52;1.40;99.90
43665;DHT22;29263;48.172;11.484;2024-02-26T06:20:17;1.40;99.90
43665;DHT22;29263;48.172;11.484;2024-02-26T06:22:43;1.50;99.90
43665;DHT22;29263;48.172;11.484;2024-02-26T06:25:08;1.50;99.90
43665;DHT22;29263;48.172;11.484;2024-02-26T06:27:34;1.60;99.90
43665;DHT22;29263;48.172;11.484;2024-02-26T06:30:00;1.60;99.90
43665;DHT22;29263;48.172;11.484;2024-02-26T06:32:26;1.60;99.90
43665;DHT22;29263;48.172;11.484;2024-02-26T06:34:55;1.70;99.90
43665;DHT22;29263;48.172;11.484;2024-02-26T06:37:21;1.70;99.90
43665;DHT22;29263;48.172;11.484;2024-02-26T06:39:47;1.80;99.90
43665;DHT22;29263;48.172;11.484;2024-02-26T06:42:12;1.90;99.90
43665;DHT22;29263;48.172;11.484;2024-02-26T06:44:38;1.90;99.90
43665;DHT22;29263;48.172;11.484;2024-02-26T06:47:03;2.00;99.90
43665;DHT22;29263;48.172;11.484;2024-02-26T06:49:29;2.00;99.90
43665;DHT22;29263;48.172;11.484;2024-02-26T06:51:55;2.10;99.90
43665;DHT22;29263;48.172;11.484;2024-02-26T06:54:21;2.10;99.90
43665;DHT22;29263;48.172;11.484;2024-02-26T06:56:46;2.20;99.90
43665;DHT22;29263;48.172;11.484;2024-02-26T06:59:12;2.20;99.90
43665;DHT22;29263;48.172;11.484;2024-02-26T07:01:40;2.30;99.90
43665;DHT22;29263;48.172;11.484;2024-02-26T07:04:06;2.30;99.90
43665;DHT22;29263;48.172;11.484;2024-02-26T07:06:31;2.30;99.90
43665;DHT22;29263;48.172;11.484;2024-02-26T07:09:17;2.40;99.90
43665;DHT22;29263;48.172;11.484;2024-02-26T07:15:08;2.50;99.90
43665;DHT22;29263;48.172;11.484;2024-02-26T07:17:34;2.60;99.90
43665;DHT22;29263;48.172;11.484;2024-02-26T07:26:42;2.80;99.90
43665;DHT22;29263;48.172;11.484;2024-02-26T07:29:07;3.00;99.90
43665;DHT22;29263;48.172;11.484;2024-02-26T07:31:33;3.00;99.90
43665;DHT22;29263;48.172;11.484;2024-02-26T07:33:58;3.00;99.90
43665;DHT22;29263;48.172;11.484;2024-02-26T07:40:19;3.20;99.90
43665;DHT22;29263;48.172;11.484;2024-02-26T07:42:45;3.40;99.90
43665;DHT22;29263;48.172;11.484;2024-02-26T07:45:10;3.40;99.90
43665;DHT22;29263;48.172;11.484;2024-02-26T07:53:57;3.50;99.90
43665;DHT22;29263;48.172;11.484;2024-02-26T07:56:23;3.60;99.90
43665;DHT22;29263;48.172;11.484;2024-02-26T07:58:48;3.60;99.90
43665;DHT22;29263;48.172;11.484;2024-02-26T08:04:35;3.70;99.90
43665;DHT22;29263;48.172;11.484;2024-02-26T08:10:06;3.90;99.90
43665;DHT22;29263;48.172;11.484;2024-02-26T08:12:32;3.90;99.90
43665;DHT22;29263;48.172;11.484;2024-02-26T08:15:24;4.00;99.90
43665;DHT22;29263;48.172;11.484;2024-02-26T08:17:50;4.10;99.90
43665;DHT22;29263;48.172;11.484;2024-02-26T08:20:15;4.20;99.90
43665;DHT22;29263;48.172;11.484;2024-02-26T08:22:41;4.20;99.90
43665;DHT22;29263;48.172;11.484;2024-02-26T08:25:07;4.30;99.90
43665;DHT22;29263;48.172;11.484;2024-02-26T08:27:34;4.40;99.90
43665;DHT22;29263;48.172;11.484;2024-02-26T08:30:00;4.50;99.90
43665;DHT22;29263;48.172;11.484;2024-02-26T08:32:25;4.60;99.90
43665;DHT22;29263;48.172;11.484;2024-02-26T08:34:51;4.70;99.90
43665;DHT22;29263;48.172;11.484;2024-02-26T08:37:17;4.80;99.90
43665;DHT22;29263;48.172;11.484;2024-02-26T08:39:43;4.80;99.90
43665;DHT22;29263;48.172;11.484;2024-02-26T08:42:09;5.00;99.90
43665;DHT22;29263;48.172;11.484;2024-02-26T08:44:34;5.00;99.90
43665;DHT22;29263;48.172;11.484;2024-02-26T08:47:00;5.10;99.90
43665;DHT22;29263;48.172;11.484;2024-02-26T08:49:25;5.20;99.90
43665;DHT22;29263;48.172;11.484;2024-02-26T08:51:51;5.20;99.90
43665;DHT22;29263;48.172;11.484;2024-02-26T08:54:16;5.20;99.90
43665;DHT22;29263;48.172;11.484;2024-02-26T08:56:42;5.30;99.90
43665;DHT22;29263;48.172;11.484;2024-02-26T08:59:08;5.30;99.90
43665;DHT22;29263;48.172;11.484;2024-02-26T09:01:33;5.40;99.90
43665;DHT22;29263;48.172;11.484;2024-02-26T09:03:59;5.40;99.90
43665;DHT22;29263;48.172;11.484;2024-02-26T09:06:25;5.40;99.90
43665;DHT22;29263;48.172;11.484;2024-02-26T09:08:50;5.50;99.90
43665;DHT22;29263;48.172;11.484;2024-02-26T09:11:16;5.60;99.90
43665;DHT22;29263;48.172;11.484;2024-02-26T09:13:41;5.60;99.90
43665;DHT22;29263;48.172;11.484;2024-02-26T09:16:07;5.60;99.90
43665;DHT22;29263;48.172;11.484;2024-02-26T09:18:33;5.70;99.90
43665;DHT22;29263;48.172;11.484;2024-02-26T09:20:59;5.80;99.90
43665;DHT22;29263;48.172;11.484;2024-02-26T09:23:25;5.90;99.90
43665;DHT22;29263;48.172;11.484;2024-02-26T09:25:50;6.00;99.90
43665;DHT22;29263;48.172;11.484;2024-02-26T09:28:16;6.10;99.90
43665;DHT22;29263;48.172;11.484;2024-02-26T09:30:43;6.20;99.90
43665;DHT22;29263;48.172;11.484;2024-02-26T09:33:09;6.40;99.90
43665;DHT22;29263;48.172;11.484;2024-02-26T09:35:34;6.50;99.90
43665;DHT22;29263;48.172;11.484;2024-02-26T09:38:00;6.70;99.90
43665;DHT22;29263;48.172;11.484;2024-02-26T09:40:26;6.90;99.90
43665;DHT22;29263;48.172;11.484;2024-02-26T09:42:59;7.00;99.90
43665;DHT22;29263;48.172;11.484;2024-02-26T09:45:26;7.20;99.90
43665;DHT22;29263;48.172;11.484;2024-02-26T09:47:55;7.40;99.90
43665;DHT22;29263;48.172;11.484;2024-02-26T09:50:21;7.60;99.90
43665;DHT22;29263;48.172;11.484;2024-02-26T09:52:51;7.80;99.90
43665;DHT22;29263;48.172;11.484;2024-02-26T09:55:17;7.90;99.90
43665;DHT22;29263;48.172;11.484;2024-02-26T09:57:45;8.10;99.90
43665;DHT22;29263;48.172;11.484;2024-02-26T10:00:17;8.20;99.90
43665;DHT22;29263;48.172;11.484;2024-02-26T10:02:46;8.20;98.70
43665;DHT22;29263;48.172;11.484;2024-02-26T10:05:16;8.20;99.50
43665;DHT22;29263;48.172;11.484;2024-02-26T10:07:44;8.20;99.10
43665;DHT22;29263;48.172;11.484;2024-02-26T10:10:10;8.30;98.70
43665;DHT22;29263;48.172;11.484;2024-02-26T10:12:35;8.40;97.50
43665;DHT22;29263;48.172;11.484;2024-02-26T10:15:01;8.40;97.30
43665;DHT22;29263;48.172;11.484;2024-02-26T10:17:27;8.50;96.80
43665;DHT22;29263;48.172;11.484;2024-02-26T10:19:53;8.60;96.70
43665;DHT22;29263;48.172;11.484;2024-02-26T10:22:22;8.80;96.70
43665;DHT22;29263;48.172;11.484;2024-02-26T10:24:48;8.90;96.10
43665;DHT22;29263;48.172;11.484;2024-02-26T10:27:15;9.10;94.50
43665;DHT22;29263;48.172;11.484;2024-02-26T10:29:40;9.20;94.20
43665;DHT22;29263;48.172;11.484;2024-02-26T10:32:08;9.30;94.00
43665;DHT22;29263;48.172;11.484;2024-02-26T10:34:35;9.40;93.50
43665;DHT22;29263;48.172;11.484;2024-02-26T10:37:03;9.50;93.80
43665;DHT22;29263;48.172;11.484;2024-02-26T10:39:30;9.60;93.60
43665;DHT22;29263;48.172;11.484;2024-02-26T10:41:55;9.70;93.60
43665;DHT22;29263;48.172;11.484;2024-02-26T10:44:21;9.80;92.30
43665;DHT22;29263;48.172;11.484;2024-02-26T10:46:47;9.90;91.90
43665;DHT22;29263;48.172;11.484;2024-02-26T10:52:37;10.00;91.60
43665;DHT22;29263;48.172;11.484;2024-02-26T10:55:04;10.00;91.10
43665;DHT22;29263;48.172;11.484;2024-02-26T10:57:33;10.20;90.90
43665;DHT22;29263;48.172;11.484;2024-02-26T11:00:01;10.20;90.60
43665;DHT22;29263;48.172;11.484;2024-02-26T11:02:30;10.30;91.00
43665;DHT22;29263;48.172;11.484;2024-02-26T11:04:57;10.40;90.40
43665;DHT22;29263;48.172;11.484;2024-02-26T11:07:24;10.50;91.40
43665;DHT22;29263;48.172;11.484;2024-02-26T11:09:51;10.60;89.50
43665;DHT22;29263;48.172;11.484;2024-02-26T11:12:18;10.70;88.20
43665;DHT22;29263;48.172;11.484;2024-02-26T11:14:46;10.70;86.10
43665;DHT22;29263;48.172;11.484;2024-02-26T11:17:13;10.80;85.90
43665;DHT22;29263;48.172;11.484;2024-02-26T11:19:43;10.90;87.20
43665;DHT22;29263;48.172;11.484;2024-02-26T11:22:09;10.90;84.90
43665;DHT22;29263;48.172;11.484;2024-02-26T11:24:35;11.10;84.60
43665;DHT22;29263;48.172;11.484;2024-02-26T11:27:07;11.30;83.00
43665;DHT22;29263;48.172;11.484;2024-02-26T11:29:38;11.40;83.40
43665;DHT22;29263;48.172;11.484;2024-02-26T11:32:06;11.60;81.00
43665;DHT22;29263;48.172;11.484;2024-02-26T11:34:31;11.50;78.90
43665;DHT22;29263;48.172;11.484;2024-02-26T11:36:57;11.60;78.60
43665;DHT22;29263;48.172;11.484;2024-02-26T11:39:33;11.70;77.60
43665;DHT22;29263;48.172;11.484;2024-02-26T11:42:07;11.80;78.30
43665;DHT22;29263;48.172;11.484;2024-02-26T11:44:34;12.00;76.70
43665;DHT22;29263;48.172;11.484;2024-02-26T11:47:12;12.10;75.60
43665;DHT22;29263;48.172;11.484;2024-02-26T11:49:38;12.20;76.20
43665;DHT22;29263;48.172;11.484;2024-02-26T11:52:08;12.20;76.70
43665;DHT22;29263;48.172;11.484;2024-02-26T11:59:50;12.30;74.00
43665;DHT22;29263;48.172;11.484;2024-02-26T12:02:44;12.30;74.20
43665;DHT22;29263;48.172;11.484;2024-02-26T12:05:21;12.30;73.90
43665;DHT22;29263;48.172;11.484;2024-02-26T12:07:53;12.40;73.70
43665;DHT22;29263;48.172;11.484;2024-02-26T12:12:49;12.40;71.30
43665;DHT22;29263;48.172;11.484;2024-02-26T12:15:15;12.50;73.40
43665;DHT22;29263;48.172;11.484;2024-02-26T12:17:41;12.50;74.30
43665;DHT22;29263;48.172;11.484;2024-02-26T12:20:10;12.50;72.30
43665;DHT22;29263;48.172;11.484;2024-02-26T12:22:36;12.50;71.80
43665;DHT22;29263;48.172;11.484;2024-02-26T12:25:05;12.60;72.20
43665;DHT22;29263;48.172;11.484;2024-02-26T12:27:31;12.70;71.70
43665;DHT22;29263;48.172;11.484;2024-02-26T12:29:59;12.80;71.40
43665;DHT22;29263;48.172;11.484;2024-02-26T12:32:25;13.00;72.10
43665;DHT22;29263;48.172;11.484;2024-02-26T12:35:10;13.00;71.10
43665;DHT22;29263;48.172;11.484;2024-02-26T12:37:41;13.10;69.50
43665;DHT22;29263;48.172;11.484;2024-02-26T12:40:14;13.20;72.40
43665;DHT22;29263;48.172;11.484;2024-02-26T12:43:16;13.30;71.70
43665;DHT22;29263;48.172;11.484;2024-02-26T12:45:55;13.30;69.90
43665;DHT22;29263;48.172;11.484;2024-02-26T12:48:21;13.20;69.70
43665;DHT22;29263;48.172;11.484;2024-02-26T12:50:47;13.20;69.70
43665;DHT22;29263;48.172;11.484;2024-02-26T12:53:13;13.30;69.20
43665;DHT22;29263;48.172;11.484;2024-02-26T12:55:39;13.30;70.30
43665;DHT22;29263;48.172;11.484;2024-02-26T12:58:06;13.30;70.80
43665;DHT22;29263;48.172;11.484;2024-02-26T13:00:32;13.30;68.30
43665;DHT22;29263;48.172;11.484;2024-02-26T13:02:59;13.20;70.30
43665;DHT22;29263;48.172;11.484;2024-02-26T13:05:25;13.30;71.00
43665;DHT22;29263;48.172;11.484;2024-02-26T13:07:58;13.40;70.10
43665;DHT22;29263;48.172;11.484;2024-02-26T13:10:27;13.50;69.60
43665;DHT22;29263;48.172;11.484;2024-02-26T13:12:52;13.50;69.60
43665;DHT22;29263;48.172;11.484;2024-02-26T13:15:21;13.60;70.10
43665;DHT22;29263;48.172;11.484;2024-02-26T13:17:48;13.70;68.70
43665;DHT22;29263;48.172;11.484;2024-02-26T13:20:29;13.70;68.80
43665;DHT22;29263;48.172;11.484;2024-02-26T13:23:11;13.90;69.80
43665;DHT22;29263;48.172;11.484;2024-02-26T13:25:37;14.00;70.40
43665;DHT22;29263;48.172;11.484;2024-02-26T13:28:17;13.90;68.70
43665;DHT22;29263;48.172;11.484;2024-02-26T13:30:53;13.70;68.80
43665;DHT22;29263;48.172;11.484;2024-02-26T13:33:19;13.60;69.20
43665;DHT22;29263;48.172;11.484;2024-02-26T13:35:46;13.70;69.10
43665;DHT22;29263;48.172;11.484;2024-02-26T13:38:14;13.80;66.30
43665;DHT22;29263;48.172;11.484;2024-02-26T13:40:43;13.80;68.00
43665;DHT22;29263;48.172;11.484;2024-02-26T13:43:33;13.80;70.70
43665;DHT22;29263;48.172;11.484;2024-02-26T13:46:04;14.00;70.70
43665;DHT22;29263;48.172;11.484;2024-02-26T13:48:30;13.90;66.50
43665;DHT22;29263;48.172;11.484;2024-02-26T13:50:56;13.70;66.10
43665;DHT22;29263;48.172;11.484;2024-02-26T13:53:22;13.60;66.60
43665;DHT22;29263;48.172;11.484;2024-02-26T13:55:49;13.50;67.40
43665;DHT22;29263;48.172;11.484;2024-02-26T13:58:15;13.40;69.20
43665;DHT22;29263;48.172;11.484;2024-02-26T14:03:41;13.50;65.00
43665;DHT22;29263;48.172;11.484;2024-02-26T14:06:07;13.40;66.70
43665;DHT22;29263;48.172;11.484;2024-02-26T14:08:33;13.40;68.40
43665;DHT22;29263;48.172;11.484;2024-02-26T14:11:21;13.30;68.80
43665;DHT22;29263;48.172;11.484;2024-02-26T14:13:45;13.30;70.40
43665;DHT22;29263;48.172;11.484;2024-02-26T14:16:13;13.20;68.50
43665;DHT22;29263;48.172;11.484;2024-02-26T14:18:39;13.20;68.20
43665;DHT22;29263;48.172;11.484;2024-02-26T14:21:04;13.10;67.50
43665;DHT22;29263;48.172;11.484;2024-02-26T14:23:33;13.10;68.90
43665;DHT22;29263;48.172;11.484;2024-02-26T14:26:03;13.00;67.30
43665;DHT22;29263;48.172;11.484;2024-02-26T14:28:29;13.00;68.40
43665;DHT22;29263;48.172;11.484;2024-02-26T14:30:55;12.90;68.00
43665;DHT22;29263;48.172;11.484;2024-02-26T14:33:20;12.80;69.40
43665;DHT22;29263;48.172;11.484;2024-02-26T14:35:46;12.80;70.80
43665;DHT22;29263;48.172;11.484;2024-02-26T14:38:11;12.70;67.70
43665;DHT22;29263;48.172;11.484;2024-02-26T14:40:37;12.50;69.40
43665;DHT22;29263;48.172;11.484;2024-02-26T14:43:03;12.40;69.90
43665;DHT22;29263;48.172;11.484;2024-02-26T14:45:30;12.40;70.00
43665;DHT22;29263;48.172;11.484;2024-02-26T14:47:56;12.20;71.70
43665;DHT22;29263;48.172;11.484;2024-02-26T14:50:21;12.20;71.50
43665;DHT22;29263;48.172;11.484;2024-02-26T14:52:47;12.00;71.60
43665;DHT22;29263;48.172;11.484;2024-02-26T14:55:13;12.00;73.60
43665;DHT22;29263;48.172;11.484;2024-02-26T14:57:38;11.90;73.20
43665;DHT22;29263;48.172;11.484;2024-02-26T15:00:04;11.80;74.10
43665;DHT22;29263;48.172;11.484;2024-02-26T15:02:32;11.80;74.80
43665;DHT22;29263;48.172;11.484;2024-02-26T15:04:58;11.80;75.60
43665;DHT22;29263;48.172;11.484;2024-02-26T15:07:23;11.70;75.90
43665;DHT22;29263;48.172;11.484;2024-02-26T15:09:49;11.70;77.20
43665;DHT22;29263;48.172;11.484;2024-02-26T15:12:14;11.60;77.10
43665;DHT22;29263;48.172;11.484;2024-02-26T15:14:42;11.60;76.60
43665;DHT22;29263;48.172;11.484;2024-02-26T15:17:10;11.60;77.20
43665;DHT22;29263;48.172;11.484;2024-02-26T15:19:39;11.50;77.30
43665;DHT22;29263;48.172;11.484;2024-02-26T15:22:04;11.50;76.80
43665;DHT22;29263;48.172;11.484;2024-02-26T15:24:30;11.40;76.20
43665;DHT22;29263;48.172;11.484;2024-02-26T15:26:56;11.40;77.00
43665;DHT22;29263;48.172;11.484;2024-02-26T15:29:22;11.30;78.00
43665;DHT22;29263;48.172;11.484;2024-02-26T15:31:48;11.20;79.10
43665;DHT22;29263;48.172;11.484;2024-02-26T15:34:13;11.20;79.10
43665;DHT22;29263;48.172;11.484;2024-02-26T15:36:40;11.10;79.90
43665;DHT22;29263;48.172;11.484;2024-02-26T15:39:06;11.10;78.50
43665;DHT22;29263;48.172;11.484;2024-02-26T15:41:32;11.00;79.00
43665;DHT22;29263;48.172;11.484;2024-02-26T15:43:58;11.00;80.10
43665;DHT22;29263;48.172;11.484;2024-02-26T15:46:25;10.90;81.20
43665;DHT22;29263;48.172;11.484;2024-02-26T15:48:51;10.90;82.40
43665;DHT22;29263;48.172;11.484;2024-02-26T15:51:23;10.80;83.30
43665;DHT22;29263;48.172;11.484;2024-02-26T15:53:52;10.80;84.50
43665;DHT22;29263;48.172;11.484;2024-02-26T15:56:18;10.70;84.70
43665;DHT22;29263;48.172;11.484;2024-02-26T15:58:49;10.70;84.60
43665;DHT22;29263;48.172;11.484;2024-02-26T16:01:14;10.60;84.80
43665;DHT22;29263;48.172;11.484;2024-02-26T16:03:40;10.60;86.70